WIII/CGK METAR and TAF weather

Enter ICAO airport designator
Station Type Date Time Source
WIII METAR 2020/07/14 17:30 UTC NOAA

WIII 141730Z 12003KT 7000 SCT020 27/23 Q1009 NOSIG


Station Type Date Time Source
WIII Decoded METAR 2020/07/14 17:30 UTC NOAA

Jakarta / Soekarno-Hatta, Indonesia (WIII) 06-07S 106-39E 8M
Jul 14, 2020 - 01:30 PM EDT / 2020.07.14 1730 UTC
Wind: from the ESE (120 degrees) at 3 MPH (3 KT):0
Visibility: 4 mile(s):0
Sky conditions: partly cloudy
Temperature: 80 F (27 C)
Dew Point: 73 F (23 C)
Relative Humidity: 78%
Pressure (altimeter): 29.80 in. Hg (1009 hPa)
ob: WIII 141730Z 12003KT 7000 SCT020 27/23 Q1009 NOSIG
cycle: 17

Station Type Date Time Source
WIII TAF 2020/07/14 18:55 UTC NOAA

TAF WIII 141700Z 1418/1524 VRB02KT 6000 SCT020
BECMG 1501/1503 06010KT 9000

Example: see airport list